createdAt,value
2018-10-21T00:03:45.231Z,5.60
2018-10-21T00:08:48.526Z,5.43
2018-10-21T00:13:51.835Z,5.40
2018-10-21T00:18:55.158Z,5.27
2018-10-21T00:23:58.486Z,4.80
2018-10-21T00:29:01.823Z,5.37
2018-10-21T00:34:05.344Z,4.47
2018-10-21T00:39:10.827Z,5.03
2018-10-21T00:44:14.133Z,4.33
2018-10-21T00:49:17.458Z,4.97
2018-10-21T00:54:20.792Z,4.80
2018-10-21T00:59:24.141Z,4.83
2018-10-21T01:04:27.433Z,4.43
2018-10-21T01:09:30.727Z,4.07
2018-10-21T01:14:34.096Z,4.03
2018-10-21T01:19:37.456Z,5.03
2018-10-21T01:24:40.775Z,4.27
2018-10-21T01:29:46.542Z,4.47
2018-10-21T01:34:49.829Z,4.40
2018-10-21T01:40:57.739Z,4.70
2018-10-21T01:46:01.699Z,4.87
2018-10-21T01:51:05.098Z,4.53
2018-10-21T01:56:08.374Z,5.00
2018-10-21T02:01:11.708Z,4.67
2018-10-21T02:06:15.033Z,4.83
2018-10-21T02:11:18.332Z,4.50
2018-10-21T02:16:21.744Z,4.63
2018-10-21T02:21:25.053Z,4.90
2018-10-21T02:26:28.447Z,4.93
2018-10-21T02:31:31.852Z,5.30
2018-10-21T02:36:35.277Z,5.10
2018-10-21T02:41:50.094Z,4.60
2018-10-21T02:46:55.561Z,5.00
2018-10-21T02:52:04.326Z,5.67
2018-10-21T02:57:09.823Z,5.20
2018-10-21T03:02:13.144Z,5.13
2018-10-21T03:07:16.563Z,4.70
2018-10-21T03:12:19.898Z,5.17
2018-10-21T03:17:23.226Z,5.40
2018-10-21T03:22:26.682Z,5.70
2018-10-21T03:27:29.982Z,6.00
2018-10-21T03:32:33.267Z,5.67
2018-10-21T03:37:36.586Z,5.80
2018-10-21T03:42:39.943Z,5.30
2018-10-21T03:47:43.248Z,5.90
2018-10-21T03:52:46.645Z,5.83
2018-10-21T03:57:50.012Z,5.90
2018-10-21T04:02:53.294Z,5.57
2018-10-21T04:07:56.614Z,5.77
2018-10-21T04:13:00.122Z,5.67
2018-10-21T04:18:03.432Z,5.27
2018-10-21T04:23:06.750Z,5.10
2018-10-21T04:28:10.709Z,5.37
2018-10-21T04:33:48.438Z,5.67
2018-10-21T04:40:01.438Z,5.27
2018-10-21T04:45:06.444Z,5.50
2018-10-21T04:50:10.530Z,5.03
2018-10-21T04:55:15.119Z,5.33
2018-10-21T05:00:20.244Z,4.85
2018-10-21T05:05:23.553Z,5.33
2018-10-21T05:10:28.693Z,5.47
2018-10-21T05:15:34.130Z,7.37
2018-10-21T05:20:37.405Z,6.23
2018-10-21T05:25:40.723Z,6.37
2018-10-21T05:30:44.026Z,5.80
2018-10-21T05:35:47.326Z,5.10
2018-10-21T05:40:51.053Z,5.20
2018-10-21T05:45:54.435Z,4.83
2018-10-21T05:50:57.762Z,5.70
2018-10-21T05:56:01.195Z,6.20
2018-10-21T06:01:04.651Z,5.00
2018-10-21T06:06:07.963Z,6.40
2018-10-21T06:11:11.285Z,5.50
2018-10-21T06:16:15.049Z,5.37
2018-10-21T06:21:18.855Z,5.70
2018-10-21T06:26:22.781Z,6.87
2018-10-21T06:31:26.149Z,6.03
2018-10-21T06:36:29.560Z,5.60
2018-10-21T06:41:33.020Z,6.43
2018-10-21T06:46:36.740Z,6.63
2018-10-21T06:51:40.078Z,7.70
2018-10-21T06:56:43.543Z,7.00
2018-10-21T07:01:46.726Z,6.87
2018-10-21T07:06:50.044Z,9.80
2018-10-21T07:11:53.548Z,7.70
2018-10-21T07:16:56.954Z,8.97
2018-10-21T07:22:00.302Z,10.13
2018-10-21T07:27:03.642Z,9.90
2018-10-21T07:32:07.373Z,9.90
2018-10-21T07:37:11.455Z,9.80
2018-10-21T07:42:14.864Z,10.67
2018-10-21T07:47:18.206Z,10.73
2018-10-21T07:52:21.521Z,11.30
2018-10-21T07:57:25.136Z,10.43
2018-10-21T08:02:28.740Z,11.43
2018-10-21T08:07:43.568Z,11.53
2018-10-21T08:12:46.866Z,11.53
2018-10-21T08:17:50.374Z,11.70
2018-10-21T08:22:53.885Z,10.93
2018-10-21T08:27:57.440Z,10.63
2018-10-21T08:33:00.859Z,11.33
2018-10-21T08:38:04.326Z,10.93
2018-10-21T08:43:07.678Z,11.30
2018-10-21T08:48:11.000Z,12.07
2018-10-21T08:53:14.332Z,12.00
2018-10-21T08:58:17.946Z,11.40
2018-10-21T09:03:21.304Z,11.07
2018-10-21T09:08:24.680Z,11.47
2018-10-21T09:13:28.207Z,12.20
2018-10-21T09:18:31.517Z,12.83
2018-10-21T09:23:34.895Z,9.30
2018-10-21T09:28:38.366Z,9.13
2018-10-21T09:33:41.783Z,8.37
2018-10-21T09:38:45.310Z,7.93
2018-10-21T09:43:48.955Z,5.97
2018-10-21T10:39:31.110Z,3.83
2018-10-21T10:44:34.453Z,4.33
2018-10-21T10:49:37.778Z,4.80
2018-10-21T10:54:41.138Z,3.87
2018-10-21T10:59:44.513Z,3.53
2018-10-21T11:04:48.761Z,2.67
2018-10-21T11:09:53.230Z,2.57
2018-10-21T11:14:57.285Z,1.93
2018-10-21T11:20:01.426Z,1.60
2018-10-21T11:25:08.847Z,2.04
2018-10-21T11:30:13.019Z,1.33
2018-10-21T11:35:17.307Z,1.70
2018-10-21T11:40:20.610Z,1.50
2018-10-21T11:45:24.530Z,1.60
2018-10-21T11:50:28.465Z,2.08
2018-10-21T11:55:39.234Z,1.62
2018-10-21T12:00:43.977Z,1.70
2018-10-21T12:05:47.459Z,1.45
2018-10-21T12:10:51.126Z,1.67
2018-10-21T12:15:54.961Z,1.90
2018-10-21T12:20:58.856Z,1.45
2018-10-21T12:26:02.261Z,1.37
2018-10-21T12:31:05.821Z,1.37
2018-10-21T12:36:09.616Z,1.10
2018-10-21T12:41:13.338Z,1.40
2018-10-21T12:46:16.732Z,1.10
2018-10-21T12:51:20.300Z,1.30
2018-10-21T12:56:23.978Z,1.20
2018-10-21T13:01:27.458Z,1.52
2018-10-21T13:06:31.139Z,1.60
2018-10-21T13:11:34.474Z,1.20
2018-10-21T13:16:37.828Z,1.60
2018-10-21T13:21:41.331Z,1.20
2018-10-21T13:26:44.721Z,1.70
2018-10-21T13:31:48.485Z,1.42
2018-10-21T13:36:52.733Z,1.52
2018-10-21T13:41:56.403Z,1.35
2018-10-21T13:46:59.943Z,1.20
2018-10-21T13:52:03.553Z,0.90
2018-10-21T13:57:06.821Z,1.00
2018-10-21T14:02:10.288Z,1.10
2018-10-21T14:07:16.669Z,1.15
2018-10-21T14:12:20.110Z,0.90
2018-10-21T14:17:23.475Z,1.10
2018-10-21T14:22:26.814Z,1.20
2018-10-21T14:27:30.243Z,1.47
2018-10-21T14:32:33.798Z,1.20
2018-10-21T14:37:37.672Z,0.90
2018-10-21T14:42:41.266Z,0.90
2018-10-21T14:47:44.823Z,1.00
2018-10-21T14:52:48.780Z,1.00
2018-10-21T14:57:52.266Z,1.40
2018-10-21T15:02:55.936Z,1.60
2018-10-21T15:07:59.648Z,1.40
2018-10-21T15:13:03.724Z,1.20
2018-10-21T15:18:07.588Z,1.60
2018-10-21T15:23:11.159Z,1.53
2018-10-21T15:28:15.026Z,0.90
2018-10-21T15:33:18.373Z,1.47
2018-10-21T15:38:21.874Z,0.97
2018-10-21T15:43:25.233Z,1.60
2018-10-21T15:48:28.654Z,2.83
2018-10-21T15:53:31.950Z,2.57
2018-10-21T15:58:35.335Z,10.60
2018-10-21T16:03:38.924Z,2.13
2018-10-21T16:08:42.232Z,1.37
2018-10-21T16:13:45.679Z,2.50
2018-10-21T16:18:49.018Z,1.67
2018-10-21T16:23:52.310Z,4.93
2018-10-21T16:28:55.716Z,6.83
2018-10-21T16:33:59.090Z,6.77
2018-10-21T16:39:02.460Z,6.27
2018-10-21T16:44:05.944Z,5.90
2018-10-21T16:49:09.255Z,7.07
2018-10-21T16:54:12.714Z,6.10
2018-10-21T16:59:16.063Z,5.93
2018-10-21T17:04:19.330Z,6.37
2018-10-21T17:09:22.763Z,5.57
2018-10-21T17:14:26.665Z,6.37
2018-10-21T17:19:30.661Z,8.37
2018-10-21T17:24:34.443Z,8.27
2018-10-21T17:29:37.873Z,6.83
2018-10-21T17:34:41.598Z,7.13
2018-10-21T17:39:45.195Z,7.87
2018-10-21T17:44:49.620Z,7.97
2018-10-21T17:49:53.410Z,8.30
2018-10-21T17:54:56.888Z,7.47
2018-10-21T18:00:00.436Z,13.80
2018-10-21T18:05:04.537Z,7.57
2018-10-21T18:10:08.005Z,8.07
2018-10-21T18:15:12.228Z,7.27
2018-10-21T18:20:15.706Z,8.05
2018-10-21T18:25:19.305Z,8.33
2018-10-21T18:30:23.604Z,8.17
2018-10-21T18:35:27.083Z,7.50
2018-10-21T18:40:30.512Z,7.20
2018-10-21T18:45:33.799Z,17.33
2018-10-21T18:50:37.222Z,7.67
2018-10-21T18:55:40.811Z,6.58
2018-10-21T19:00:44.286Z,7.00
2018-10-21T19:05:47.699Z,6.37
2018-10-21T19:10:51.076Z,6.10
2018-10-21T19:15:54.586Z,6.60
2018-10-21T19:20:57.958Z,6.40
2018-10-21T19:26:01.371Z,5.97
2018-10-21T19:31:04.727Z,5.20
2018-10-21T19:36:08.063Z,6.00
2018-10-21T19:41:11.446Z,5.43
2018-10-21T19:46:15.449Z,5.53
2018-10-21T19:51:18.972Z,5.47
2018-10-21T19:56:22.516Z,5.53
2018-10-21T20:01:25.934Z,6.50
2018-10-21T20:06:29.242Z,6.20
2018-10-21T20:11:32.534Z,5.50
2018-10-21T20:16:35.878Z,4.90
2018-10-21T20:21:40.142Z,5.10
2018-10-21T20:26:43.682Z,5.47
2018-10-21T20:31:47.151Z,5.10
2018-10-21T20:36:51.102Z,5.13
2018-10-21T20:41:55.267Z,5.03
2018-10-21T20:46:59.232Z,5.40
2018-10-21T20:52:02.756Z,5.60
2018-10-21T20:57:08.256Z,8.70
2018-10-21T21:02:12.767Z,5.57
2018-10-21T21:07:16.857Z,5.60
2018-10-21T21:12:20.210Z,5.67
2018-10-21T21:17:23.502Z,5.77
2018-10-21T21:22:27.022Z,6.50
2018-10-21T21:27:30.523Z,6.03
2018-10-21T21:43:49.368Z,5.73
2018-10-21T21:48:52.777Z,5.23
2018-10-21T21:53:56.115Z,5.53
2018-10-21T21:58:59.530Z,5.57
2018-10-21T22:04:02.930Z,5.60
2018-10-21T22:09:10.493Z,5.03
2018-10-21T22:14:13.777Z,5.05
2018-10-21T22:19:17.078Z,5.60
2018-10-21T22:24:20.448Z,5.93
2018-10-21T22:29:23.802Z,5.20
2018-10-21T22:34:27.134Z,4.97
2018-10-21T22:39:30.476Z,4.90
2018-10-21T22:44:33.830Z,5.20
2018-10-21T22:49:37.151Z,5.40
2018-10-21T22:54:40.469Z,4.67
2018-10-21T22:59:43.802Z,4.97
2018-10-21T23:04:47.570Z,4.80
2018-10-21T23:09:51.297Z,4.50
2018-10-21T23:14:54.668Z,4.87
2018-10-21T23:19:57.978Z,5.00
2018-10-21T23:25:01.349Z,5.07
2018-10-21T23:30:06.735Z,5.45
2018-10-21T23:35:10.039Z,4.60
2018-10-21T23:40:13.359Z,5.90
2018-10-21T23:45:16.662Z,5.25
2018-10-21T23:50:19.975Z,4.90
2018-10-21T23:55:23.264Z,5.97
